createdAt,value
2023-04-02T00:01:44.040Z,35.04
2023-04-02T00:04:14.650Z,35.07
2023-04-02T00:06:45.740Z,35.12
2023-04-02T00:09:13.349Z,35.13
2023-04-02T00:11:42.297Z,35.13
2023-04-02T00:14:23.030Z,35.12
2023-04-02T00:16:51.860Z,35.15
2023-04-02T00:19:44.538Z,35.11
2023-04-02T00:22:20.689Z,35.12
2023-04-02T00:24:51.008Z,35.21
2023-04-02T00:27:19.106Z,35.22
2023-04-02T00:29:54.154Z,35.12
2023-04-02T00:32:26.620Z,35.18
2023-04-02T00:34:54.478Z,35.17
2023-04-02T00:37:24.167Z,35.21
2023-04-02T00:39:53.055Z,35.28
2023-04-02T00:42:20.655Z,35.29
2023-04-02T00:44:49.422Z,35.33
2023-04-02T00:47:27.635Z,35.31
2023-04-02T00:50:23.958Z,35.37
2023-04-02T00:52:52.006Z,35.36
2023-04-02T00:55:36.617Z,35.40
2023-04-02T00:58:04.579Z,35.42
2023-04-02T01:00:34.151Z,35.44
2023-04-02T01:03:16.910Z,35.48
2023-04-02T01:06:18.852Z,35.45
2023-04-02T01:08:53.036Z,35.52
2023-04-02T01:11:36.515Z,35.46
2023-04-02T01:14:28.863Z,35.49
2023-04-02T01:17:18.702Z,35.52
2023-04-02T01:19:52.664Z,35.50
2023-04-02T01:22:51.065Z,35.54
2023-04-02T01:25:32.517Z,35.56
2023-04-02T01:28:39.053Z,35.59
2023-04-02T01:31:06.616Z,35.58
2023-04-02T01:33:34.507Z,35.61
2023-04-02T01:36:19.990Z,35.63
2023-04-02T01:38:53.814Z,35.65
2023-04-02T01:41:31.222Z,35.67
2023-04-02T01:44:10.312Z,35.73
2023-04-02T01:46:40.390Z,35.72
2023-04-02T01:49:16.791Z,35.74
2023-04-02T01:51:45.982Z,35.74
2023-04-02T01:54:16.300Z,35.79
2023-04-02T01:56:44.102Z,35.82
2023-04-02T01:59:12.255Z,35.80
2023-04-02T02:01:51.932Z,35.80
2023-04-02T02:04:19.777Z,35.80
2023-04-02T02:06:47.192Z,35.83
2023-04-02T02:09:23.208Z,35.81
2023-04-02T02:11:51.451Z,35.85
2023-04-02T02:14:22.836Z,35.87
2023-04-02T02:16:50.489Z,35.91
2023-04-02T02:19:28.713Z,35.93
2023-04-02T02:22:18.145Z,35.96
2023-04-02T02:24:46.188Z,35.99
2023-04-02T02:27:34.436Z,36.06
2023-04-02T02:30:06.473Z,36.10
2023-04-02T02:32:34.126Z,36.13
2023-04-02T02:35:13.050Z,36.16
2023-04-02T02:37:42.383Z,36.16
2023-04-02T02:40:20.617Z,36.18
2023-04-02T02:42:51.187Z,36.20
2023-04-02T02:45:21.466Z,36.20
2023-04-02T02:47:48.887Z,36.21
2023-04-02T02:50:21.705Z,36.03
2023-04-02T02:52:54.480Z,36.19
2023-04-02T02:55:24.403Z,36.27
2023-04-02T02:57:58.452Z,36.32
2023-04-02T03:00:26.588Z,36.34
2023-04-02T03:02:55.122Z,36.40
2023-04-02T03:05:27.914Z,36.45
2023-04-02T03:07:56.462Z,36.51
2023-04-02T03:10:35.412Z,36.56
2023-04-02T03:13:21.902Z,36.40
2023-04-02T03:16:00.833Z,36.58
2023-04-02T03:19:10.224Z,36.64
2023-04-02T03:21:53.282Z,36.73
2023-04-02T03:24:29.739Z,36.81
2023-04-02T03:27:11.512Z,36.87
2023-04-02T03:30:02.097Z,36.87
2023-04-02T03:32:32.999Z,36.88
2023-04-02T03:35:26.953Z,36.92
2023-04-02T03:38:21.011Z,36.91
2023-04-02T03:41:00.793Z,36.92
2023-04-02T03:43:34.940Z,36.99
2023-04-02T03:46:31.621Z,37.05
2023-04-02T03:49:08.338Z,36.96
2023-04-02T03:51:39.625Z,36.96
2023-04-02T03:54:11.249Z,37.02
2023-04-02T03:56:41.972Z,37.02
2023-04-02T03:59:25.031Z,37.00
2023-04-02T04:02:15.561Z,36.98
2023-04-02T04:04:44.696Z,37.05
2023-04-02T04:07:30.268Z,37.10
2023-04-02T04:09:57.976Z,37.19
2023-04-02T04:12:42.488Z,37.26
2023-04-02T04:15:12.835Z,37.19
2023-04-02T04:17:53.965Z,37.23
2023-04-02T04:20:28.098Z,37.22
2023-04-02T04:22:56.319Z,37.24
2023-04-02T04:25:29.927Z,37.25
2023-04-02T04:28:42.713Z,37.25
2023-04-02T04:31:18.004Z,37.17
2023-04-02T04:33:50.555Z,37.25
2023-04-02T04:36:30.800Z,37.25
2023-04-02T04:39:00.446Z,37.23
2023-04-02T04:41:31.045Z,37.11
2023-04-02T04:44:18.660Z,37.28
2023-04-02T04:46:53.495Z,37.44
2023-04-02T04:49:41.595Z,37.49
2023-04-02T04:52:21.683Z,37.50
2023-04-02T04:54:49.253Z,37.47
2023-04-02T04:57:34.246Z,37.48
2023-04-02T05:00:12.982Z,37.51
2023-04-02T05:03:04.236Z,37.45
2023-04-02T05:05:33.549Z,37.38
2023-04-02T05:08:14.572Z,37.45
2023-04-02T05:11:05.716Z,37.44
2023-04-02T05:13:52.295Z,37.45
2023-04-02T05:16:33.684Z,37.45
2023-04-02T05:19:30.202Z,37.51
2023-04-02T05:22:33.331Z,37.55
2023-04-02T05:25:23.746Z,37.58
2023-04-02T05:28:11.435Z,37.71
2023-04-02T05:30:49.645Z,37.74
2023-04-02T05:33:21.224Z,37.78
2023-04-02T05:35:53.616Z,37.90
2023-04-02T05:38:24.643Z,37.91
2023-04-02T05:40:59.443Z,37.95
2023-04-02T05:43:27.162Z,37.91
2023-04-02T05:45:56.243Z,37.91
2023-04-02T05:48:33.601Z,37.91
2023-04-02T05:51:01.704Z,37.89
2023-04-02T05:53:34.317Z,37.90
2023-04-02T05:56:06.700Z,37.92
2023-04-02T05:58:55.942Z,37.91
2023-04-02T06:01:25.456Z,37.92
2023-04-02T06:04:25.022Z,37.97
2023-04-02T06:07:16.617Z,37.93
2023-04-02T06:10:03.515Z,37.96
2023-04-02T06:12:40.543Z,37.96
2023-04-02T06:15:19.569Z,37.98
2023-04-02T06:18:22.837Z,37.97
2023-04-02T06:20:51.630Z,38.00
2023-04-02T06:23:38.270Z,38.02
2023-04-02T06:26:16.781Z,38.02
2023-04-02T06:29:02.489Z,38.03
2023-04-02T06:31:34.131Z,38.01
2023-04-02T06:34:04.860Z,38.00
2023-04-02T06:36:33.652Z,37.93
2023-04-02T06:39:05.934Z,37.69
2023-04-02T06:41:34.186Z,37.81
2023-04-02T06:44:07.406Z,37.82
2023-04-02T06:46:57.567Z,37.82
2023-04-02T06:49:38.344Z,37.85
2023-04-02T06:52:19.344Z,37.79
2023-04-02T06:54:46.991Z,37.75
2023-04-02T06:57:17.166Z,37.72
2023-04-02T06:59:45.189Z,37.71
2023-04-02T07:02:35.928Z,37.71
2023-04-02T07:05:06.903Z,37.68
2023-04-02T07:07:35.205Z,37.73
2023-04-02T07:10:02.994Z,37.73
2023-04-02T07:12:30.932Z,37.74
2023-04-02T07:14:58.377Z,37.74
2023-04-02T07:17:26.206Z,37.74
2023-04-02T07:19:54.025Z,37.72
2023-04-02T07:22:22.195Z,37.71
2023-04-02T07:24:49.811Z,37.67
2023-04-02T07:27:17.656Z,37.64
2023-04-02T07:29:45.100Z,37.59
2023-04-02T07:32:12.738Z,37.56
2023-04-02T07:34:41.252Z,37.55
2023-04-02T07:37:12.303Z,37.55
2023-04-02T07:39:40.749Z,37.52
2023-04-02T07:42:08.291Z,37.50
2023-04-02T07:44:35.775Z,37.49
2023-04-02T07:47:03.594Z,37.48
2023-04-02T07:49:31.099Z,37.48
2023-04-02T07:51:58.992Z,37.48
2023-04-02T07:54:27.280Z,37.48
2023-04-02T07:56:54.780Z,37.46
2023-04-02T07:59:22.500Z,37.46
2023-04-02T08:01:52.266Z,37.45
2023-04-02T08:04:21.756Z,37.46
2023-04-02T08:06:49.566Z,37.12
2023-04-02T08:09:17.059Z,36.93
2023-04-02T08:11:46.732Z,37.25
2023-04-02T08:14:14.410Z,37.36
2023-04-02T08:16:46.146Z,37.37
2023-04-02T08:19:14.068Z,37.38
2023-04-02T08:21:41.872Z,37.37
2023-04-02T08:24:09.507Z,37.41
2023-04-02T08:26:37.358Z,37.38
2023-04-02T08:29:04.841Z,37.42
2023-04-02T08:31:32.368Z,37.50
2023-04-02T08:34:00.244Z,37.54
2023-04-02T08:36:33.697Z,37.54
2023-04-02T08:39:01.979Z,37.54
2023-04-02T08:41:31.150Z,37.53
2023-04-02T08:44:20.396Z,37.53
2023-04-02T08:47:04.765Z,37.46
2023-04-02T08:49:35.035Z,37.44
2023-04-02T08:52:02.879Z,37.46
2023-04-02T08:54:34.885Z,37.45
2023-04-02T08:57:19.326Z,37.43
2023-04-02T08:59:48.005Z,37.44
2023-04-02T09:02:36.206Z,37.45
2023-04-02T09:05:06.126Z,37.49
2023-04-02T09:07:34.160Z,37.52
2023-04-02T09:10:01.678Z,37.54
2023-04-02T09:12:30.488Z,37.48
2023-04-02T09:15:07.257Z,37.44
2023-04-02T09:17:46.343Z,37.34
2023-04-02T09:20:21.350Z,37.28
2023-04-02T09:22:51.083Z,37.22
2023-04-02T09:25:22.947Z,37.06
2023-04-02T09:27:51.227Z,37.11
2023-04-02T09:30:22.901Z,37.13
2023-04-02T09:32:54.593Z,37.14
2023-04-02T09:35:26.849Z,37.13
2023-04-02T09:38:17.650Z,37.11
2023-04-02T09:40:49.749Z,37.05
2023-04-02T09:43:19.829Z,37.04
2023-04-02T09:45:58.349Z,37.04
2023-04-02T09:48:31.187Z,37.03
2023-04-02T09:51:13.425Z,37.03
2023-04-02T09:53:42.703Z,37.03
2023-04-02T09:56:14.663Z,37.03
2023-04-02T09:58:42.586Z,37.03
2023-04-02T10:01:35.311Z,37.01
2023-04-02T10:04:04.394Z,36.98
2023-04-02T10:06:32.915Z,36.97
2023-04-02T10:09:27.530Z,36.98
2023-04-02T10:11:55.490Z,36.96
2023-04-02T10:14:25.870Z,36.96
2023-04-02T10:16:58.089Z,36.96
2023-04-02T10:19:36.311Z,36.96
2023-04-02T10:22:06.782Z,36.95
2023-04-02T10:24:34.507Z,36.94
2023-04-02T10:27:22.608Z,36.91
2023-04-02T10:30:05.234Z,36.90
2023-04-02T10:32:36.279Z,36.94
2023-04-02T10:35:25.571Z,36.96
2023-04-02T10:37:59.071Z,36.97
2023-04-02T10:41:03.669Z,37.02
2023-04-02T10:43:52.684Z,37.02
2023-04-02T10:46:37.172Z,37.08
2023-04-02T10:49:43.487Z,37.13
2023-04-02T10:52:19.121Z,37.14
2023-04-02T11:33:33.894Z,37.55
2023-04-02T11:36:25.767Z,37.67
2023-04-02T11:38:54.910Z,37.73
2023-04-02T11:42:02.213Z,37.87
2023-04-02T11:44:30.737Z,37.91
2023-04-02T11:47:21.959Z,38.05
2023-04-02T11:49:56.169Z,38.05
2023-04-02T11:52:25.020Z,38.22
2023-04-02T11:54:57.061Z,38.29
2023-04-02T11:57:46.877Z,38.33
2023-04-02T12:00:37.920Z,38.41
2023-04-02T12:03:31.213Z,38.40
2023-04-02T12:06:10.729Z,38.55
2023-04-02T12:09:04.832Z,38.65
2023-04-02T12:11:34.407Z,38.74
2023-04-02T12:14:07.342Z,38.92
2023-04-02T12:16:35.118Z,39.04
2023-04-02T12:19:03.445Z,38.91
2023-04-02T12:21:31.222Z,38.60
2023-04-02T12:23:59.211Z,38.46
2023-04-02T12:26:37.677Z,38.29
2023-04-02T12:29:28.745Z,38.34
2023-04-02T12:31:57.820Z,38.26
2023-04-02T12:34:27.273Z,38.32
2023-04-02T12:37:02.411Z,38.57
2023-04-02T12:39:33.964Z,38.69
2023-04-02T12:42:01.665Z,38.81
2023-04-02T12:44:32.648Z,38.96
2023-04-02T12:47:00.724Z,39.02
2023-04-02T12:49:37.120Z,39.23
2023-04-02T12:52:06.975Z,39.26
2023-04-02T12:54:37.302Z,39.31
2023-04-02T12:57:28.090Z,39.28
2023-04-02T13:00:06.243Z,39.28
2023-04-02T13:02:44.838Z,39.31
2023-04-02T13:05:12.433Z,39.32
2023-04-02T13:07:42.080Z,39.33
2023-04-02T13:10:24.352Z,39.39
2023-04-02T13:13:02.032Z,39.35
2023-04-02T13:15:34.457Z,39.35
2023-04-02T13:18:05.922Z,39.31
2023-04-02T13:20:37.537Z,39.40
2023-04-02T13:23:32.123Z,39.39
2023-04-02T13:26:13.283Z,39.24
2023-04-02T13:28:41.074Z,39.20
2023-04-02T13:31:17.694Z,39.18
2023-04-02T13:33:46.012Z,39.15
2023-04-02T13:36:15.137Z,39.16
2023-04-02T13:38:42.654Z,39.13
2023-04-02T13:41:22.553Z,39.08
2023-04-02T13:43:54.334Z,38.98
2023-04-02T13:46:24.113Z,38.95
2023-04-02T13:48:52.306Z,38.91
2023-04-02T13:51:21.347Z,38.82
2023-04-02T13:53:50.799Z,38.72
2023-04-02T13:56:19.513Z,38.68
2023-04-02T13:58:48.818Z,38.55
2023-04-02T14:01:18.622Z,38.45
2023-04-02T14:03:53.755Z,38.53
2023-04-02T14:06:45.479Z,38.41
2023-04-02T14:09:32.393Z,38.49
2023-04-02T14:12:22.807Z,38.52
2023-04-02T14:15:21.828Z,38.48
2023-04-02T14:18:07.834Z,38.45
2023-04-02T14:20:54.209Z,38.36
2023-04-02T14:23:53.752Z,38.43
2023-04-02T14:26:24.114Z,38.49
2023-04-02T14:29:04.349Z,38.54
2023-04-02T14:31:54.485Z,38.57
2023-04-02T14:34:30.642Z,38.59
2023-04-02T14:37:02.072Z,38.53
2023-04-02T14:39:35.894Z,38.52
2023-04-02T14:42:17.388Z,38.50
2023-04-02T14:44:50.971Z,38.41
2023-04-02T14:47:28.283Z,38.41
2023-04-02T14:49:58.861Z,38.45
2023-04-02T14:52:27.460Z,38.56
2023-04-02T14:55:05.847Z,38.57
2023-04-02T14:57:38.709Z,38.58
2023-04-02T15:00:25.054Z,38.67
2023-04-02T15:03:20.027Z,38.68
2023-04-02T15:05:53.100Z,38.66
2023-04-02T15:08:33.097Z,38.62
2023-04-02T15:11:16.440Z,38.60
2023-04-02T15:13:49.725Z,38.54
2023-04-02T15:16:27.102Z,38.55
2023-04-02T15:18:56.466Z,38.51
2023-04-02T15:21:43.435Z,38.52
2023-04-02T15:24:27.639Z,38.56
2023-04-02T15:27:25.008Z,38.52
2023-04-02T15:30:36.989Z,38.50
2023-04-02T15:33:26.937Z,38.43
2023-04-02T15:36:03.297Z,38.46
2023-04-02T15:38:38.235Z,38.53
2023-04-02T15:41:28.218Z,38.53
2023-04-02T15:44:03.520Z,38.67
2023-04-02T15:46:44.265Z,38.82
2023-04-02T15:49:46.548Z,38.91
2023-04-02T15:52:20.419Z,38.98
2023-04-02T15:55:09.765Z,39.08
2023-04-02T15:58:35.747Z,39.11
2023-04-02T16:01:23.715Z,39.05
2023-04-02T16:04:18.176Z,39.09
2023-04-02T16:07:16.818Z,39.13
2023-04-02T16:10:13.221Z,39.18
2023-04-02T16:12:43.936Z,39.24
2023-04-02T16:15:18.425Z,39.02
2023-04-02T16:17:47.861Z,38.95
2023-04-02T16:20:28.275Z,39.02
2023-04-02T16:23:14.633Z,39.01
2023-04-02T16:26:13.386Z,38.99
2023-04-02T16:28:54.108Z,39.02
2023-04-02T16:31:31.906Z,39.01
2023-04-02T16:34:25.427Z,39.03
2023-04-02T16:36:54.378Z,39.01
2023-04-02T16:39:37.980Z,39.00
2023-04-02T16:42:37.994Z,39.10
2023-04-02T16:45:28.073Z,39.14
2023-04-02T16:48:09.169Z,39.24
2023-04-02T16:50:50.228Z,39.31
2023-04-02T16:53:50.890Z,39.40
2023-04-02T16:56:47.822Z,39.49
2023-04-02T16:59:45.000Z,39.61
2023-04-02T17:02:37.832Z,39.66
2023-04-02T17:05:29.926Z,39.80
2023-04-02T17:08:20.409Z,39.86
2023-04-02T17:10:59.223Z,39.93
2023-04-02T17:13:42.102Z,39.98
2023-04-02T17:16:32.378Z,39.99
2023-04-02T17:19:01.082Z,40.03
2023-04-02T17:21:30.422Z,39.80
2023-04-02T17:24:17.538Z,39.93
2023-04-02T17:26:49.542Z,39.96
2023-04-02T17:29:22.463Z,39.93
2023-04-02T17:31:53.476Z,39.91
2023-04-02T17:34:24.767Z,39.82
2023-04-02T17:37:21.499Z,39.71
2023-04-02T17:40:07.493Z,39.66
2023-04-02T17:42:37.018Z,39.64
2023-04-02T17:45:17.226Z,39.57
2023-04-02T17:48:03.220Z,39.56
2023-04-02T17:50:38.779Z,39.50
2023-04-02T17:53:40.549Z,39.43
2023-04-02T17:56:28.266Z,39.35
2023-04-02T17:59:06.457Z,39.29
2023-04-02T18:01:50.879Z,39.30
2023-04-02T18:04:23.950Z,39.26
2023-04-02T18:07:37.289Z,39.25
2023-04-02T18:10:21.161Z,39.16
2023-04-02T18:12:58.572Z,39.12
2023-04-02T18:15:58.634Z,39.10
2023-04-02T18:18:41.131Z,39.02
2023-04-02T18:21:21.720Z,39.00
2023-04-02T18:24:15.473Z,39.11
2023-04-02T18:26:59.321Z,39.14
2023-04-02T18:29:38.805Z,39.14
2023-04-02T18:32:29.844Z,39.12
2023-04-02T18:35:29.237Z,39.02
2023-04-02T18:38:22.737Z,39.03
2023-04-02T18:41:11.329Z,38.91
2023-04-02T18:44:08.639Z,38.94
2023-04-02T18:46:54.809Z,38.89
2023-04-02T18:49:37.649Z,38.83
2023-04-02T18:52:14.979Z,38.82
2023-04-02T18:55:17.687Z,38.81
2023-04-02T18:57:49.151Z,38.80
2023-04-02T19:00:28.070Z,38.72
2023-04-02T19:03:53.325Z,38.72
2023-04-02T19:06:29.452Z,38.68
2023-04-02T19:09:10.603Z,38.71
2023-04-02T19:11:40.096Z,38.73
2023-04-02T19:14:14.389Z,38.73
2023-04-02T19:16:47.728Z,38.74
2023-04-02T19:19:27.966Z,38.75
2023-04-02T19:22:19.436Z,38.74
2023-04-02T19:25:03.427Z,38.72
2023-04-02T19:28:01.591Z,38.74
2023-04-02T19:31:01.067Z,38.67
2023-04-02T19:33:37.080Z,38.70
2023-04-02T19:36:27.011Z,38.49
2023-04-02T19:39:10.229Z,38.35
2023-04-02T19:41:54.023Z,38.26
2023-04-02T19:44:24.409Z,38.03
2023-04-02T19:46:53.573Z,37.83
2023-04-02T19:49:33.434Z,37.70
2023-04-02T19:52:01.854Z,37.69
2023-04-02T19:54:30.597Z,37.56
2023-04-02T19:57:02.150Z,37.57
2023-04-02T19:59:34.210Z,37.53
2023-04-02T20:02:07.535Z,37.69
2023-04-02T20:04:37.597Z,37.66
2023-04-02T20:07:06.064Z,37.66
2023-04-02T20:09:34.517Z,37.68
2023-04-02T20:12:03.799Z,37.71
2023-04-02T20:14:32.704Z,37.73
2023-04-02T20:17:01.759Z,37.75
2023-04-02T20:19:30.615Z,37.74
2023-04-02T20:21:58.632Z,37.67
2023-04-02T20:24:27.455Z,37.64
2023-04-02T20:26:56.799Z,37.67
2023-04-02T20:29:28.546Z,37.67
2023-04-02T20:31:56.583Z,37.68
2023-04-02T20:34:26.233Z,37.67
2023-04-02T20:36:54.263Z,37.68
2023-04-02T20:39:22.043Z,37.56
2023-04-02T20:41:50.211Z,37.63
2023-04-02T20:44:17.921Z,37.72
2023-04-02T20:46:46.400Z,37.75
2023-04-02T20:49:14.188Z,37.77
2023-04-02T20:52:19.668Z,37.78
2023-04-02T20:54:47.988Z,37.77
2023-04-02T20:57:15.962Z,37.81
2023-04-02T20:59:43.508Z,37.82
2023-04-02T21:02:11.351Z,37.92
2023-04-02T21:04:38.835Z,37.94
2023-04-02T21:07:06.370Z,37.92
2023-04-02T21:09:34.156Z,37.88
2023-04-02T21:12:01.600Z,37.87
2023-04-02T21:14:31.495Z,37.91
2023-04-02T21:16:59.061Z,37.91
2023-04-02T21:19:27.125Z,37.77
2023-04-02T21:21:55.851Z,37.88
2023-04-02T21:24:23.791Z,37.95
2023-04-02T21:26:51.240Z,37.94
2023-04-02T21:29:18.734Z,37.99
2023-04-02T21:31:46.590Z,38.02
2023-04-02T21:34:14.960Z,38.10
2023-04-02T21:36:47.021Z,38.10
2023-04-02T21:39:22.190Z,38.10
2023-04-02T21:41:50.745Z,38.16
2023-04-02T21:44:21.456Z,38.15
2023-04-02T21:46:49.866Z,38.15
2023-04-02T21:49:20.069Z,38.17
2023-04-02T21:51:47.765Z,38.15
2023-04-02T21:54:15.590Z,38.13
2023-04-02T21:56:44.580Z,38.13
2023-04-02T21:59:13.030Z,38.27
2023-04-02T22:01:47.106Z,38.34
2023-04-02T22:04:17.215Z,38.34
2023-04-02T22:06:44.800Z,38.36
2023-04-02T22:09:14.137Z,38.35
2023-04-02T22:11:44.095Z,38.42
2023-04-02T22:14:11.671Z,38.38
2023-04-02T22:16:39.361Z,38.38
2023-04-02T22:19:08.758Z,38.40
2023-04-02T22:21:36.272Z,38.39
2023-04-02T22:24:04.729Z,38.35
2023-04-02T22:26:32.557Z,38.39
2023-04-02T22:29:00.273Z,38.40
2023-04-02T22:31:29.335Z,38.40
2023-04-02T22:33:57.430Z,38.41
2023-04-02T22:36:25.857Z,37.73
2023-04-02T22:38:53.278Z,36.96
2023-04-02T22:41:23.241Z,37.43
2023-04-02T22:43:50.733Z,37.53
2023-04-02T22:46:18.503Z,37.54
2023-04-02T22:48:46.855Z,37.62
2023-04-02T22:51:15.993Z,37.70
2023-04-02T22:53:43.520Z,37.72
2023-04-02T22:56:15.454Z,37.73
2023-04-02T22:58:42.983Z,37.80
2023-04-02T23:01:13.325Z,37.85
2023-04-02T23:03:40.675Z,37.91
2023-04-02T23:06:09.819Z,37.78
2023-04-02T23:08:37.829Z,37.92
2023-04-02T23:11:16.583Z,37.99
2023-04-02T23:13:44.363Z,38.05
2023-04-02T23:16:13.046Z,38.16
2023-04-02T23:18:41.149Z,38.24
2023-04-02T23:21:09.009Z,38.32
2023-04-02T23:23:36.624Z,38.38
2023-04-02T23:26:11.156Z,38.44
2023-04-02T23:28:39.074Z,38.47
2023-04-02T23:31:07.846Z,38.50
2023-04-02T23:33:35.473Z,38.53
2023-04-02T23:36:10.809Z,38.57
2023-04-02T23:38:38.346Z,38.62
2023-04-02T23:41:06.059Z,38.63
2023-04-02T23:43:33.493Z,38.63
2023-04-02T23:46:01.113Z,38.67
2023-04-02T23:48:28.853Z,38.69
2023-04-02T23:50:56.344Z,38.74
2023-04-02T23:53:23.775Z,38.79
2023-04-02T23:55:51.543Z,38.83
2023-04-02T23:58:19.047Z,38.84
